• Join FlightAware (Why Join?)
  • Login
  • US Flag 
06:45AM EDT


 

Airport Tracker/Info


-or-


 

Live Flight TrackerFlight Track Log ✈ N356TB ✈ 14-Jul-2013 ✈ KLWA - KUMP

Flight Track Log - Related Links

Times and Time Zones

All times are in EDT time to prevent confusion due to time zone crossing. See the N356TB flight status page for this flight to view local times or setup timezone preferences in your user account.

Time Position Orientation Groundspeed Altitude Reporting Facility
EDT Latitude Longitude Course Direction KTS MPH feet Rate Location/Type
07:35PM 42.2158 -86.2408 176° South 110 127 3,700  Level Chicago Center
07:36PM 42.1853 -86.2367 174° South 110 127 4,400 480 Climbing Chicago Center
07:37PM 42.1556 -86.2367 180° South 107 123 4,800 240 Climbing Chicago Center
07:38PM 42.1228 -86.2322 174° South 115 132 4,900  Climbing Chicago Center
07:39PM 42.1432 -86.2369 176° South  Level Estimated
07:39PM 42.0794 -86.2294 177° South 127 146 4,900  Level Chicago Center
07:40PM 42.1086 -86.2337 176° South  Level Estimated
07:40PM 42.0436 -86.2258 176° South 130 150 4,900  Level Chicago Center
07:41PM 42.0078 -86.2236 177° South 129 148 4,900  Level Chicago Center
07:42PM 41.9714 -86.2200 176° South 130 150 4,900  Level Chicago Center
07:43PM 41.9364 -86.2158 175° South 128 147 4,900  Level Chicago Center
07:44PM 41.9006 -86.2136 177° South 128 147 4,900  Level Chicago Center
07:45PM 41.8594 -86.2094 176° South 124 143 4,900  Level Chicago Center
07:46PM 41.8239 -86.2053 175° South 127 146 4,900  Level Chicago Center
07:47PM 41.7886 -86.2017 176° South 128 147 4,900  Level Chicago Center
07:48PM 41.7525 -86.1986 176° South 131 151 4,900  Level Chicago Center
07:49PM 41.7161 -86.1961 177° South 130 150 4,900  Level Chicago Center
07:50PM 41.6742 -86.1903 174° South 126 145 4,900  Level Chicago Center
07:51PM 41.6383 -86.1911 181° South 128 147 4,900  Level Chicago Center
07:52PM 41.6031 -86.1858 174° South 128 147 4,900  Level Chicago Center
07:53PM 41.5683 -86.1839 178° South 126 145 4,900  Level Chicago Center
07:54PM 41.5325 -86.1803 176° South 128 147 4,900  Level Chicago Center
07:55PM 41.4972 -86.1769 176° South 128 147 4,900  Level Chicago Center
07:56PM 41.4547 -86.1733 176° South 129 148 4,900  Level Chicago Center
07:57PM 41.4189 -86.1700 176° South 129 148 4,900  Level Chicago Center
07:58PM 41.3842 -86.1669 176° South 126 145 4,900  Level Chicago Center
08:00PM 41.3489 -86.1636 176° South 127 146 4,900  Level Chicago Center
08:01PM 41.3133 -86.1600 176° South 128 147 4,900  Level Chicago Center
08:02PM 41.2711 -86.1572 177° South 127 146 4,900  Level Chicago Center
08:03PM 41.2364 -86.1533 175° South 127 146 4,900  Level Chicago Center
08:04PM 41.2028 -86.1514 178° South 124 143 4,900  Level Chicago Center
08:05PM 41.1686 -86.1492 177° South 123 142 4,900 -120 Level Chicago Center
08:05PM 41.1442 -86.1464 175° South 125 144 4,800 -120 Descending Chicago Center
08:06PM 41.1086 -86.1444 178° South 127 146 4,800  Level Chicago Center
08:07PM 41.0714 -86.1394 174° South 129 148 4,800 60 Level Chicago Center
08:08PM 41.0533 -86.1378 176° South 130 150 4,900  Climbing Chicago Center
08:08PM 41.0358 -86.1375 179° South 129 148 4,800  Descending Chicago Center
08:09PM 41.0181 -86.1342 172° South 131 151 4,900 60 Climbing Chicago Center
08:10PM 40.9847 -86.1331 179° South 126 145 4,900  Level Chicago Center
08:11PM 40.9494 -86.1292 175° South 125 144 4,900  Level Chicago Center
08:12PM 40.9142 -86.1275 178° South 126 145 4,900  Level Chicago Center
08:13PM 40.8714 -86.1233 176° South 128 147 4,900  Level Chicago Center
08:14PM 40.8350 -86.1200 176° South 130 150 4,900  Level Chicago Center
08:15PM 40.8000 -86.1175 177° South 128 147 4,900  Level Chicago Center
08:16PM 40.7633 -86.1144 176° South 130 150 4,900  Level Chicago Center
08:17PM 40.7272 -86.1108 176° South 131 151 4,900 -60 Level Chicago Center
08:18PM 40.6861 -86.1067 176° South 128 147 4,800 -60 Descending Chicago Center
08:19PM 40.6500 -86.1042 177° South 130 150 4,800  Level Chicago Center
08:20PM 40.6142 -86.1019 177° South 129 148 4,800  Level Chicago Center
08:21PM 40.5794 -86.0964 173° South 127 146 4,800  Level Chicago Center
08:22PM 40.5439 -86.0956 179° South 127 146 4,800  Level Chicago Center
08:23PM 40.4969 -86.0917 176° South 129 148 4,800  Level Chicago Center
08:24PM 40.4653 -86.0869 174° South 129 148 4,800  Level Chicago Center
08:25PM 40.4292 -86.0853 178° South 129 148 4,800  Level Chicago Center
08:26PM 40.3939 -86.0814 175° South 128 147 4,800  Level Chicago Center
08:27PM 40.3575 -86.0792 177° South 130 150 4,800  Level Chicago Center
08:29PM 40.3203 -86.0756 176° South 133 153 4,800  Level Chicago Center
08:30PM 40.2769 -86.0719 176° South 131 151 4,800  Level Chicago Center
08:31PM 40.2414 -86.0692 177° South 129 148 4,800  Level Chicago Center
08:32PM 40.2053 -86.0658 176° South 129 148 4,800 -240 Level Chicago Center
08:33PM 40.1681 -86.0650 179° South 130 150 4,400 -480 Descending Chicago Center
08:34PM 40.1283 -86.0619 177° South 136 157 3,900 -300 Descending Chicago Center
08:35PM 40.0942 -86.0439 158° South 133 153 3,800 -360 Descending Chicago Center
08:36PM 40.0500 -86.0486 185° South 134 154 3,200 -600 Descending Chicago Center
08:37PM 40.0117 -86.0614 194° South 138 159 2,600 -600 Descending Chicago Center